createdAt,value
2019-04-21T00:00:45.560Z,8.70
2019-04-21T00:05:06.202Z,8.60
2019-04-21T00:09:27.804Z,8.50
2019-04-21T00:13:28.084Z,8.50
2019-04-21T00:17:26.313Z,8.40
2019-04-21T00:21:43.318Z,8.30
2019-04-21T00:25:59.646Z,8.20
2019-04-21T00:30:15.829Z,8.20
2019-04-21T00:34:07.361Z,8.00
2019-04-21T00:38:40.447Z,8.00
2019-04-21T00:42:43.551Z,7.90
2019-04-21T00:46:54.244Z,7.80
2019-04-21T00:51:25.085Z,7.80
2019-04-21T00:55:37.405Z,7.70
2019-04-21T00:59:43.303Z,7.60
2019-04-21T01:03:55.033Z,7.60
2019-04-21T01:08:01.431Z,7.50
2019-04-21T01:12:12.727Z,7.50
2019-04-21T01:16:31.686Z,7.40
2019-04-21T01:20:17.280Z,7.40
2019-04-21T01:24:30.781Z,7.30
2019-04-21T01:28:52.414Z,7.30
2019-04-21T01:33:09.466Z,7.20
2019-04-21T01:37:10.346Z,7.10
2019-04-21T01:41:35.532Z,7.10
2019-04-21T01:45:31.715Z,7.10
2019-04-21T01:49:37.018Z,7.00
2019-04-21T01:54:22.022Z,7.00
2019-04-21T01:58:24.514Z,6.80
2019-04-21T02:02:47.708Z,6.70
2019-04-21T02:06:57.273Z,6.60
2019-04-21T02:11:09.275Z,6.60
2019-04-21T02:15:20.126Z,6.60
2019-04-21T02:19:19.283Z,6.60
2019-04-21T02:23:43.970Z,6.60
2019-04-21T02:27:51.598Z,6.50
2019-04-21T02:36:37.319Z,6.50
2019-04-21T02:40:29.430Z,6.40
2019-04-21T02:44:43.290Z,6.40
2019-04-21T02:48:56.456Z,6.40
2019-04-21T02:53:05.242Z,6.30
2019-04-21T02:57:28.100Z,6.20
2019-04-21T03:01:49.021Z,6.10
2019-04-21T03:05:58.789Z,6.00
2019-04-21T03:10:11.838Z,6.00
2019-04-21T03:14:31.490Z,5.90
2019-04-21T03:18:46.491Z,5.90
2019-04-21T03:22:49.095Z,5.80
2019-04-21T03:27:01.874Z,5.80
2019-04-21T03:31:42.216Z,5.80
2019-04-21T03:35:49.139Z,5.70
2019-04-21T03:39:30.957Z,5.70
2019-04-21T03:43:34.814Z,5.70
2019-04-21T03:47:46.441Z,5.70
2019-04-21T03:52:03.201Z,5.60
2019-04-21T03:56:27.040Z,5.40
2019-04-21T04:00:36.488Z,5.30
2019-04-21T04:04:49.663Z,5.30
2019-04-21T04:09:14.254Z,5.20
2019-04-21T04:13:20.375Z,5.20
2019-04-21T04:17:30.156Z,5.20
2019-04-21T04:21:44.245Z,5.20
2019-04-21T04:25:45.578Z,5.10
2019-04-21T04:29:59.181Z,5.10
2019-04-21T04:34:14.640Z,5.10
2019-04-21T04:38:30.097Z,5.10
2019-04-21T04:47:02.884Z,5.10
2019-04-21T04:51:12.188Z,5.10
2019-04-21T04:55:08.527Z,5.00
2019-04-21T04:59:33.783Z,5.00
2019-04-21T05:03:47.310Z,5.30
2019-04-21T05:07:50.485Z,5.70
2019-04-21T05:11:50.574Z,6.10
2019-04-21T05:16:18.554Z,6.50
2019-04-21T05:24:21.487Z,7.10
2019-04-21T05:28:21.463Z,7.40
2019-04-21T05:32:55.562Z,7.40
2019-04-21T05:37:24.514Z,7.30
2019-04-21T05:41:24.014Z,7.10
2019-04-21T05:45:50.070Z,7.10
2019-04-21T05:49:55.677Z,7.20
2019-04-21T05:54:23.029Z,7.30
2019-04-21T05:58:21.346Z,7.50
2019-04-21T06:02:44.106Z,7.70
2019-04-21T06:06:47.240Z,7.90
2019-04-21T06:11:16.145Z,8.20
2019-04-21T06:15:07.951Z,8.50
2019-04-21T06:19:14.524Z,8.70
2019-04-21T06:23:28.691Z,9.00
2019-04-21T06:27:52.645Z,9.30
2019-04-21T06:32:16.715Z,9.60
2019-04-21T06:44:48.876Z,10.40
2019-04-21T06:48:57.080Z,10.70
2019-04-21T06:53:04.005Z,11.10
2019-04-21T06:57:11.790Z,11.40
2019-04-21T07:01:24.110Z,11.80
2019-04-21T07:05:35.350Z,12.20
2019-04-21T07:09:48.268Z,12.40
2019-04-21T07:14:03.077Z,12.70
2019-04-21T07:18:09.280Z,13.10
2019-04-21T07:22:17.660Z,13.50
2019-04-21T07:26:25.463Z,13.90
2019-04-21T07:34:48.055Z,14.50
2019-04-21T07:38:57.166Z,15.00
2019-04-21T07:43:03.886Z,15.50
2019-04-21T07:47:20.327Z,15.80
2019-04-21T07:51:54.899Z,16.10
2019-04-21T07:55:38.024Z,16.50
2019-04-21T08:04:39.300Z,17.20
2019-04-21T08:08:29.657Z,17.60
2019-04-21T08:12:40.794Z,17.80
2019-04-21T08:16:51.136Z,18.10
2019-04-21T08:21:02.989Z,18.50
2019-04-21T08:25:13.860Z,18.90
2019-04-21T08:29:29.700Z,19.20
2019-04-21T08:33:42.881Z,19.50
2019-04-21T08:37:43.251Z,19.80
2019-04-21T08:41:51.166Z,20.20
2019-04-21T08:46:06.810Z,20.50
2019-04-21T08:50:17.324Z,20.80
2019-04-21T08:54:26.512Z,21.10
2019-04-21T08:58:56.117Z,21.30
2019-04-21T09:03:06.495Z,21.50
2019-04-21T09:11:29.492Z,21.90
2019-04-21T09:15:41.590Z,22.00
2019-04-21T09:20:13.402Z,21.90
2019-04-21T09:24:05.628Z,22.00
2019-04-21T09:28:14.060Z,21.90
2019-04-21T09:32:12.348Z,22.00
2019-04-21T09:36:20.159Z,22.40
2019-04-21T09:40:34.026Z,22.50
2019-04-21T09:44:40.994Z,22.80
2019-04-21T09:48:55.665Z,22.70
2019-04-21T09:53:10.858Z,22.50
2019-04-21T09:57:21.934Z,22.60
2019-04-21T10:01:28.814Z,22.80
2019-04-21T10:05:31.717Z,22.70
2019-04-21T10:09:40.793Z,22.80
2019-04-21T10:13:50.753Z,23.00
2019-04-21T10:18:02.951Z,23.20
2019-04-21T10:22:12.656Z,23.60
2019-04-21T10:26:22.222Z,23.60
2019-04-21T10:30:31.137Z,23.60
2019-04-21T10:34:41.252Z,23.60
2019-04-21T10:38:53.180Z,23.80
2019-04-21T10:43:00.934Z,24.10
2019-04-21T10:47:11.016Z,24.20
2019-04-21T10:51:21.205Z,24.10
2019-04-21T10:55:45.064Z,24.50
2019-04-21T10:59:46.228Z,24.90
2019-04-21T11:04:31.279Z,24.60
2019-04-21T11:08:42.941Z,24.30
2019-04-21T11:12:48.383Z,24.50
2019-04-21T11:16:58.586Z,24.50
2019-04-21T11:21:09.060Z,24.40
2019-04-21T11:25:18.234Z,24.40
2019-04-21T11:29:28.503Z,24.30
2019-04-21T11:33:37.794Z,24.40
2019-04-21T11:37:48.303Z,24.40
2019-04-21T11:41:57.677Z,24.90
2019-04-21T11:46:06.750Z,24.90
2019-04-21T11:50:16.984Z,25.00
2019-04-21T11:54:26.807Z,25.00
2019-04-21T11:58:36.148Z,25.00
2019-04-21T12:02:45.711Z,25.30
2019-04-21T12:06:55.978Z,25.30
2019-04-21T12:11:05.546Z,25.40
2019-04-21T12:15:14.706Z,25.60
2019-04-21T12:19:25.010Z,25.40
2019-04-21T12:23:34.371Z,25.40
2019-04-21T12:27:43.903Z,25.50
2019-04-21T12:32:15.943Z,25.30
2019-04-21T12:36:25.366Z,25.30
2019-04-21T12:40:34.674Z,25.50
2019-04-21T12:44:43.759Z,25.70
2019-04-21T12:48:53.739Z,25.70
2019-04-21T12:53:03.322Z,25.50
2019-04-21T12:57:13.732Z,25.30
2019-04-21T13:01:23.270Z,25.30
2019-04-21T13:05:33.703Z,25.30
2019-04-21T13:09:44.195Z,25.40
2019-04-21T13:13:53.655Z,25.60
2019-04-21T13:18:02.821Z,25.60
2019-04-21T13:22:12.259Z,25.40
2019-04-21T13:26:30.802Z,25.60
2019-04-21T13:30:32.593Z,25.60
2019-04-21T13:34:42.178Z,25.70
2019-04-21T13:39:37.779Z,25.90
2019-04-21T13:43:21.127Z,25.90
2019-04-21T13:47:30.532Z,25.90
2019-04-21T13:51:39.938Z,26.00
2019-04-21T13:55:48.833Z,25.80
2019-04-21T13:59:57.645Z,25.70
2019-04-21T14:04:07.376Z,25.60
2019-04-21T14:08:16.394Z,25.80
2019-04-21T14:12:25.440Z,26.00
2019-04-21T14:16:34.458Z,25.80
2019-04-21T14:20:44.914Z,25.80
2019-04-21T14:24:54.163Z,25.70
2019-04-21T14:29:03.582Z,26.00
2019-04-21T14:33:14.090Z,26.10
2019-04-21T14:37:24.587Z,26.20
2019-04-21T14:41:33.842Z,26.40
2019-04-21T14:45:48.499Z,26.20
2019-04-21T14:50:24.405Z,26.20
2019-04-21T14:54:58.918Z,26.20
2019-04-21T14:59:09.040Z,26.20
2019-04-21T15:03:19.259Z,26.10
2019-04-21T15:07:28.690Z,26.10
2019-04-21T15:11:38.082Z,26.10
2019-04-21T15:15:47.952Z,26.10
2019-04-21T15:20:04.091Z,26.00
2019-04-21T15:24:08.898Z,25.80
2019-04-21T15:28:17.974Z,25.70
2019-04-21T15:32:28.326Z,25.80
2019-04-21T15:36:37.937Z,25.80
2019-04-21T15:40:54.785Z,25.90
2019-04-21T15:44:58.799Z,25.90
2019-04-21T15:49:09.187Z,25.90
2019-04-21T15:53:19.381Z,25.90
2019-04-21T15:57:35.531Z,25.80
2019-04-21T16:01:56.701Z,25.80
2019-04-21T16:06:05.790Z,25.60
2019-04-21T16:10:28.286Z,25.40
2019-04-21T16:14:27.010Z,25.30
2019-04-21T16:18:36.316Z,25.30
2019-04-21T16:22:46.469Z,25.20
2019-04-21T16:26:56.541Z,25.20
2019-04-21T16:31:06.757Z,25.00
2019-04-21T16:35:18.309Z,25.00
2019-04-21T16:39:27.445Z,24.80
2019-04-21T16:43:37.489Z,24.60
2019-04-21T16:47:49.061Z,24.40
2019-04-21T16:52:16.276Z,24.40
2019-04-21T16:56:37.353Z,24.40
2019-04-21T17:00:59.531Z,24.30
2019-04-21T17:05:02.507Z,24.10
2019-04-21T17:09:12.674Z,24.10
2019-04-21T17:13:22.366Z,25.40
2019-04-21T17:17:57.290Z,26.80
2019-04-21T17:21:43.688Z,27.70
2019-04-21T17:25:53.128Z,28.60
2019-04-21T17:30:02.124Z,29.30
2019-04-21T17:34:16.173Z,29.70
2019-04-21T17:38:21.874Z,30.00
2019-04-21T17:42:42.950Z,30.10
2019-04-21T17:46:48.548Z,30.30
2019-04-21T17:51:07.724Z,30.40
2019-04-21T17:55:27.786Z,29.70
2019-04-21T18:04:12.643Z,25.70
2019-04-21T18:08:18.531Z,24.20
2019-04-21T18:12:25.009Z,23.00
2019-04-21T18:16:28.709Z,22.20
2019-04-21T18:20:32.294Z,21.50
2019-04-21T18:24:54.193Z,20.90
2019-04-21T18:28:56.933Z,20.30
2019-04-21T18:33:12.084Z,19.90
2019-04-21T18:37:41.761Z,19.50
2019-04-21T18:42:04.832Z,19.00
2019-04-21T18:46:27.000Z,18.50
2019-04-21T18:51:00.518Z,18.00
2019-04-21T18:55:16.591Z,17.50
2019-04-21T18:59:16.289Z,17.10
2019-04-21T19:03:35.125Z,16.80
2019-04-21T19:07:58.420Z,16.50
2019-04-21T19:12:07.662Z,16.20
2019-04-21T19:16:27.979Z,16.00
2019-04-21T19:20:29.490Z,15.80
2019-04-21T19:24:46.562Z,15.60
2019-04-21T19:28:52.237Z,15.40
2019-04-21T19:32:58.004Z,15.20
2019-04-21T19:37:00.057Z,15.00
2019-04-21T19:41:21.894Z,14.80
2019-04-21T19:45:29.391Z,14.60
2019-04-21T19:49:45.272Z,14.50
2019-04-21T19:53:44.847Z,14.30
2019-04-21T19:57:45.131Z,14.20
2019-04-21T20:01:54.186Z,14.00
2019-04-21T20:06:14.158Z,13.90
2019-04-21T20:10:33.428Z,13.70
2019-04-21T20:18:42.402Z,13.50
2019-04-21T20:22:50.233Z,13.30
2019-04-21T20:27:06.918Z,13.20
2019-04-21T20:31:23.647Z,13.00
2019-04-21T20:35:46.566Z,12.80
2019-04-21T20:39:40.401Z,12.70
2019-04-21T20:44:02.478Z,12.60
2019-04-21T20:47:54.134Z,12.50
2019-04-21T20:52:18.745Z,12.40
2019-04-21T20:56:21.148Z,12.30
2019-04-21T21:00:47.191Z,12.20
2019-04-21T21:04:43.444Z,12.10
2019-04-21T21:09:01.636Z,12.00
2019-04-21T21:13:20.419Z,11.90
2019-04-21T21:17:40.168Z,11.70
2019-04-21T21:21:32.721Z,11.60
2019-04-21T21:26:03.041Z,11.40
2019-04-21T21:29:57.297Z,11.20
2019-04-21T21:34:10.379Z,11.10
2019-04-21T21:38:19.766Z,11.10
2019-04-21T21:42:13.317Z,11.00
2019-04-21T21:46:42.964Z,10.90
2019-04-21T21:50:45.647Z,10.90
2019-04-21T21:54:43.567Z,10.70
2019-04-21T21:58:53.849Z,10.50
2019-04-21T22:03:14.291Z,10.40
2019-04-21T22:07:17.126Z,10.30
2019-04-21T22:11:26.289Z,10.20
2019-04-21T22:15:35.574Z,10.10
2019-04-21T22:20:10.515Z,10.10
2019-04-21T22:24:04.774Z,10.00
2019-04-21T22:28:07.445Z,10.00
2019-04-21T22:32:21.581Z,9.90
2019-04-21T22:36:43.834Z,9.80
2019-04-21T22:40:50.845Z,9.70
2019-04-21T22:44:50.020Z,9.60
2019-04-21T22:49:04.925Z,9.50
2019-04-21T22:53:11.728Z,9.40
2019-04-21T22:57:23.726Z,9.40
2019-04-21T23:01:40.545Z,9.30
2019-04-21T23:05:44.693Z,9.20
2019-04-21T23:09:53.520Z,9.00
2019-04-21T23:14:06.551Z,8.90
2019-04-21T23:18:30.713Z,8.90
2019-04-21T23:22:55.003Z,8.80
2019-04-21T23:26:48.666Z,8.70
2019-04-21T23:31:09.759Z,8.70
2019-04-21T23:35:06.176Z,8.60
2019-04-21T23:39:15.980Z,8.50
2019-04-21T23:43:24.402Z,8.50
2019-04-21T23:47:42.076Z,8.40
2019-04-21T23:51:47.043Z,8.30
2019-04-21T23:55:50.671Z,8.20
